Time;durP1;ratioP1;P1;durP2;ratioP2;P2;SDS_P1;SDS_P2;PMS_P1;PMS_P2;Temp;Humidity;BMP_temperature;BMP_pressure;BME280_temperature;BME280_humidity;BME280_pressure;Samples;Min_cycle;Max_cycle;Signal;HPM_P1;HPM_P2
2022/02/13 00:00:26;;;;;;;4.70;1.60;;;;;;;1.36;77.00;101335.88;107873;1279;60715;-79
2022/02/13 00:02:53;;;;;;;6.10;1.70;;;;;;;1.32;76.94;101333.86;107872;1279;76060;-79
2022/02/13 00:05:19;;;;;;;4.60;1.50;;;;;;;1.22;76.74;101326.98;108006;1279;71248;-79
2022/02/13 00:07:46;;;;;;;3.30;1.90;;;;;;;1.18;76.91;101326.01;107837;1279;73074;-79
2022/02/13 00:10:13;;;;;;;5.60;2.10;;;;;;;1.12;77.39;101318.02;108058;1277;60198;-79
2022/02/13 00:12:40;;;;;;;4.00;1.40;;;;;;;1.07;77.47;101312.80;107677;1279;61673;-79
2022/02/13 00:15:07;;;;;;;3.40;1.30;;;;;;;1.04;77.95;101304.48;108075;1277;74742;-78
2022/02/13 00:17:34;;;;;;;4.30;2.00;;;;;;;1.02;77.98;101307.36;108034;1277;71295;-79
2022/02/13 00:20:20;;;;;;;5.90;1.80;;;;;;;1.00;78.29;101304.18;107951;1279;74090;-79
2022/02/13 00:22:46;;;;;;;3.40;1.60;;;;;;;1.01;78.39;101299.27;107633;1279;61394;-79
2022/02/13 00:25:13;;;;;;;4.30;1.90;;;;;;;1.01;78.46;101302.73;108078;1277;60645;-79
2022/02/13 00:27:40;;;;;;;5.10;1.40;;;;;;;1.01;78.41;101298.34;107676;1279;75953;-80
2022/02/13 00:30:07;;;;;;;4.00;2.00;;;;;;;0.99;78.40;101288.73;107948;1277;71867;-79
2022/02/13 00:32:35;;;;;;;6.30;2.50;;;;;;;0.96;78.30;101284.98;108041;1277;73020;-79
2022/02/13 00:35:01;;;;;;;2.90;1.50;;;;;;;0.89;78.50;101276.88;108015;1277;61485;-77
2022/02/13 00:37:28;;;;;;;5.50;2.10;;;;;;;0.86;78.96;101277.20;107940;1279;60559;-78
2022/02/13 00:39:54;;;;;;;6.30;2.50;;;;;;;0.81;78.87;101275.23;108052;1277;59208;-78
2022/02/13 00:42:21;;;;;;;3.90;2.00;;;;;;;0.77;79.26;101272.52;107995;1277;59292;-78
2022/02/13 00:44:47;;;;;;;3.00;1.60;;;;;;;0.75;79.54;101262.54;108072;1277;59359;-78
2022/02/13 00:47:13;;;;;;;2.60;1.10;;;;;;;0.73;79.52;101263.04;107992;1277;59183;-78
2022/02/13 00:49:40;;;;;;;5.30;1.80;;;;;;;0.72;79.80;101263.83;107971;1277;59190;-78
2022/02/13 00:52:07;;;;;;;3.50;2.00;;;;;;;0.72;79.94;101254.96;107580;1279;59196;-78
2022/02/13 00:54:34;;;;;;;5.90;1.70;;;;;;;0.72;79.82;101253.23;107604;1279;59276;-78
2022/02/13 00:57:01;;;;;;;3.70;2.10;;;;;;;0.71;79.88;101249.23;107613;1279;72924;-78
2022/02/13 00:59:30;;;;;;;4.60;1.80;;;;;;;0.70;79.93;101248.63;108015;1277;62603;-78
2022/02/13 01:01:57;;;;;;;5.50;1.50;;;;;;;0.71;79.94;101254.84;107969;1279;61605;-78
2022/02/13 01:04:23;;;;;;;4.60;1.70;;;;;;;0.71;79.97;101253.77;107978;1277;76252;-78
2022/02/13 01:06:50;;;;;;;6.20;2.00;;;;;;;0.72;79.80;101248.69;108067;1279;72795;-78
2022/02/13 01:09:16;;;;;;;3.20;1.50;;;;;;;0.72;79.85;101242.95;108154;1277;74003;-78
2022/02/13 01:11:43;;;;;;;3.90;2.00;;;;;;;0.74;79.86;101242.65;108100;1277;62299;-77
2022/02/13 01:14:09;;;;;;;4.30;1.80;;;;;;;0.74;79.67;101238.41;107995;1279;61649;-78
2022/02/13 01:16:36;;;;;;;3.10;2.10;;;;;;;0.74;79.42;101235.27;107964;1278;76426;-77
2022/02/13 01:19:02;;;;;;;6.00;2.10;;;;;;;0.74;79.56;101234.06;108146;1277;59224;-77
2022/02/13 01:21:29;;;;;;;4.40;2.40;;;;;;;0.76;79.62;101228.23;108102;1277;74181;-77
2022/02/13 01:23:56;;;;;;;4.30;2.20;;;;;;;0.77;79.49;101233.21;107989;1279;62484;-78
2022/02/13 01:26:23;;;;;;;5.10;2.90;;;;;;;0.77;79.34;101230.91;108063;1278;61596;-78
2022/02/13 01:28:50;;;;;;;5.00;2.00;;;;;;;0.80;79.12;101230.95;108139;1277;74871;-77
2022/02/13 02:44:50;;;;;;;7.50;2.70;;;;;;;1.12;75.54;101122.73;107969;1277;74510;-78
2022/02/13 02:47:16;;;;;;;4.30;1.40;;;;;;;1.13;75.41;101118.88;107931;1279;71307;-78
2022/02/13 02:49:43;;;;;;;3.40;1.70;;;;;;;1.14;75.23;101126.83;108008;1277;59215;-78
2022/02/13 02:52:09;;;;;;;4.30;2.20;;;;;;;1.17;75.10;101126.64;107930;1277;59522;-78
2022/02/13 02:54:36;;;;;;;5.30;2.00;;;;;;;1.18;75.00;101130.00;108137;1277;59465;-78
2022/02/13 02:57:03;;;;;;;5.80;2.20;;;;;;;1.18;74.81;101130.90;107806;1279;59051;-78
2022/02/13 02:59:29;;;;;;;3.30;1.60;;;;;;;1.20;74.77;101141.40;107902;1279;72576;-79
2022/02/13 03:01:56;;;;;;;6.30;2.30;;;;;;;1.21;74.72;101141.67;108092;1279;59178;-78
2022/02/13 03:04:23;;;;;;;7.20;2.30;;;;;;;1.20;74.67;101133.17;107769;1278;61229;-78
2022/02/13 03:06:49;;;;;;;6.80;2.50;;;;;;;1.19;74.72;101128.06;108005;1279;60270;-78
2022/02/13 03:09:16;;;;;;;5.50;2.70;;;;;;;1.17;74.93;101121.91;107972;1277;59445;-78
2022/02/13 03:11:42;;;;;;;4.30;2.00;;;;;;;1.14;74.86;101121.39;107998;1279;59152;-78
2022/02/13 03:14:10;;;;;;;5.80;2.30;;;;;;;1.10;75.12;101114.34;107990;1279;59199;-78
2022/02/13 03:16:36;;;;;;;7.10;2.60;;;;;;;1.08;75.24;101108.76;108006;1277;61414;-77
2022/02/13 03:19:03;;;;;;;6.40;2.00;;;;;;;1.05;75.43;101103.77;108105;1277;61011;-78
2022/02/13 03:21:29;;;;;;;2.90;2.00;;;;;;;0.99;75.51;101092.96;107738;1279;59213;-77
2022/02/13 03:23:55;;;;;;;3.20;2.00;;;;;;;0.94;75.85;101089.83;108055;1277;58861;-78
2022/02/13 03:26:24;;;;;;;10.30;2.80;;;;;;;0.89;75.82;101086.88;107884;1279;59404;-79
2022/02/13 03:28:51;;;;;;;6.20;1.70;;;;;;;0.84;75.89;101084.46;107990;1277;62439;-78
2022/02/13 03:31:21;;;;;;;3.90;1.50;;;;;;;0.78;76.06;101080.61;107845;1278;60486;-78
2022/02/13 03:33:47;;;;;;;7.60;2.40;;;;;;;0.71;76.23;101076.24;108074;1277;59162;-78
2022/02/13 03:36:14;;;;;;;4.90;2.40;;;;;;;0.63;76.32;101077.08;107763;1279;59107;-77
2022/02/13 03:38:40;;;;;;;12.30;2.40;;;;;;;0.56;76.21;101076.00;107881;1278;74083;-77
2022/02/13 03:41:07;;;;;;;6.90;2.60;;;;;;;0.46;76.27;101074.02;108064;1277;62516;-77
2022/02/13 03:43:33;;;;;;;7.60;3.10;;;;;;;0.37;76.58;101067.66;108137;1277;60588;-78
2022/02/13 03:46:00;;;;;;;5.20;3.20;;;;;;;0.28;76.62;101064.95;108071;1277;76151;-78
2022/02/13 03:48:26;;;;;;;8.10;3.30;;;;;;;0.18;76.96;101061.25;107755;1279;59505;-79
2022/02/13 03:50:53;;;;;;;6.60;3.20;;;;;;;0.07;77.15;101064.21;108110;1277;59173;-77
2022/02/13 03:53:19;;;;;;;5.20;2.70;;;;;;;-0.06;77.38;101065.89;108097;1277;59081;-77
2022/02/13 03:55:46;;;;;;;5.40;3.30;;;;;;;-0.18;77.73;101072.92;108004;1279;59123;-77
2022/02/13 03:58:12;;;;;;;7.00;2.90;;;;;;;-0.30;78.11;101067.38;108101;1278;59182;-77
2022/02/13 04:00:39;;;;;;;6.00;3.30;;;;;;;-0.41;78.54;101060.25;107987;1278;59110;-77
2022/02/13 04:03:05;;;;;;;4.90;2.20;;;;;;;-0.50;79.96;101050.23;108093;1279;72846;-77
2022/02/13 04:05:32;;;;;;;6.50;2.70;;;;;;;-0.56;80.76;101045.01;107842;1279;59861;-77
2022/02/13 04:07:58;;;;;;;8.70;3.20;;;;;;;-0.59;81.24;101041.40;108016;1277;59191;-78
2022/02/13 04:10:25;;;;;;;6.20;3.00;;;;;;;-0.60;81.14;101047.04;108100;1277;59027;-78
2022/02/13 04:12:51;;;;;;;8.30;3.00;;;;;;;-0.64;80.90;101042.54;108124;1278;59386;-78
2022/02/13 04:15:18;;;;;;;9.70;3.30;;;;;;;-0.65;80.81;101039.18;108084;1277;59377;-78
2022/02/13 04:17:44;;;;;;;6.00;3.00;;;;;;;-0.67;81.12;101029.19;108106;1277;59124;-78
2022/02/13 04:20:11;;;;;;;7.50;2.50;;;;;;;-0.68;80.91;101025.46;108000;1279;59245;-78
2022/02/13 04:22:37;;;;;;;9.20;3.20;;;;;;;-0.71;80.88;101022.30;108087;1277;59618;-78
2022/02/13 04:25:04;;;;;;;7.90;3.70;;;;;;;-0.75;81.04;101019.43;108023;1279;59014;-78
2022/02/13 04:27:30;;;;;;;3.90;1.70;;;;;;;-0.77;81.32;101011.27;107894;1279;59124;-77
2022/02/13 04:29:57;;;;;;;5.90;3.10;;;;;;;-0.77;81.74;101011.23;108120;1277;59317;-78
2022/02/13 04:32:25;;;;;;;9.40;3.00;;;;;;;-0.73;81.89;101011.52;108190;1278;58999;-78
2022/02/13 04:34:51;;;;;;;5.40;2.40;;;;;;;-0.70;81.68;101006.13;108187;1277;74697;-79
2022/02/13 04:37:17;;;;;;;5.10;2.60;;;;;;;-0.68;81.55;101000.44;108192;1277;59229;-78
2022/02/13 04:39:44;;;;;;;9.10;3.10;;;;;;;-0.67;81.29;100994.12;108012;1279;59271;-78
2022/02/13 04:42:12;;;;;;;6.30;2.80;;;;;;;-0.65;81.21;100991.74;108164;1278;59080;-78
2022/02/13 04:44:39;;;;;;;6.20;2.20;;;;;;;-0.63;81.25;100984.12;108016;1278;60342;-79
2022/02/13 04:47:05;;;;;;;7.40;2.80;;;;;;;-0.56;81.34;100976.26;108168;1278;77823;-78
2022/02/13 04:49:32;;;;;;;8.50;3.50;;;;;;;-0.48;81.09;100976.26;108161;1277;59090;-78
2022/02/13 04:51:58;;;;;;;7.80;3.00;;;;;;;-0.41;80.80;100978.23;108213;1278;72939;-78
2022/02/13 04:54:26;;;;;;;4.90;2.90;;;;;;;-0.33;80.26;100975.01;108043;1279;62416;-78
2022/02/13 04:56:52;;;;;;;6.30;2.70;;;;;;;-0.27;79.98;100977.02;108181;1279;59078;-78
2022/02/13 04:59:19;;;;;;;5.30;2.80;;;;;;;-0.23;79.76;100971.35;108110;1278;59180;-78
2022/02/13 05:01:46;;;;;;;4.50;2.50;;;;;;;-0.19;79.30;100971.29;108191;1278;70890;-78
2022/02/13 05:04:12;;;;;;;6.10;2.80;;;;;;;-0.15;79.09;100974.19;108137;1278;74141;-78
2022/02/13 05:06:39;;;;;;;5.30;2.60;;;;;;;-0.11;78.84;100976.36;107853;1279;61223;-78
2022/02/13 05:09:06;;;;;;;7.40;2.80;;;;;;;-0.08;78.67;100976.48;107957;1279;59109;-78
2022/02/13 05:11:32;;;;;;;5.20;2.20;;;;;;;-0.08;78.29;100968.11;108091;1279;74909;-78
2022/02/13 05:14:02;;;;;;;5.90;3.20;;;;;;;-0.08;78.20;100969.20;107655;1279;59208;-77
2022/02/13 05:16:29;;;;;;;6.40;2.70;;;;;;;-0.12;78.22;100971.50;108151;1279;73084;-78
2022/02/13 05:18:55;;;;;;;5.70;2.70;;;;;;;-0.14;78.31;100970.95;107796;1279;62172;-78
2022/02/13 05:21:22;;;;;;;6.70;2.70;;;;;;;-0.15;78.15;100965.98;108040;1279;58654;-77
2022/02/13 05:23:48;;;;;;;4.70;2.50;;;;;;;-0.15;78.20;100967.03;108097;1279;59090;-78
2022/02/13 05:26:15;;;;;;;7.80;3.30;;;;;;;-0.17;78.07;100967.31;108148;1279;60398;-78
2022/02/13 05:28:42;;;;;;;7.10;2.60;;;;;;;-0.19;77.99;100969.59;108170;1278;59082;-77
2022/02/13 05:31:09;;;;;;;3.90;1.50;;;;;;;-0.24;78.01;100968.10;108182;1278;61219;-78
2022/02/13 05:33:36;;;;;;;5.90;3.00;;;;;;;-0.28;78.02;100960.23;108189;1277;60194;-78
2022/02/13 05:36:02;;;;;;;7.20;3.00;;;;;;;-0.36;77.96;100950.84;108099;1278;76135;-78
2022/02/13 05:38:29;;;;;;;6.30;3.40;;;;;;;-0.47;78.00;100945.45;108169;1277;71406;-77
2022/02/13 05:40:55;;;;;;;5.00;2.40;;;;;;;-0.56;78.71;100941.69;108123;1279;59271;-77
2022/02/13 05:43:22;;;;;;;7.70;3.10;;;;;;;-0.65;79.21;100939.63;108166;1277;58438;-78
2022/02/13 05:45:51;;;;;;;5.60;3.00;;;;;;;-0.70;79.50;100937.49;108190;1278;59145;-78
2022/02/13 05:48:18;;;;;;;5.90;2.40;;;;;;;-0.75;79.73;100934.03;108084;1279;74263;-78
2022/02/13 05:50:44;;;;;;;5.90;3.30;;;;;;;-0.79;79.48;100925.61;107901;1279;59185;-78
2022/02/13 05:53:11;;;;;;;4.10;1.80;;;;;;;-0.86;79.73;100919.39;108185;1278;72985;-78
2022/02/13 05:55:37;;;;;;;9.10;2.90;;;;;;;-0.91;80.06;100910.86;108094;1278;59136;-78
2022/02/13 05:58:04;;;;;;;3.60;1.50;;;;;;;-0.94;80.20;100911.42;108125;1279;59066;-78
2022/02/13 06:00:30;;;;;;;3.80;2.10;;;;;;;-0.98;80.29;100905.90;107998;1279;59143;-78
2022/02/13 06:02:56;;;;;;;6.20;3.30;;;;;;;-0.99;80.65;100908.23;108157;1278;58475;-78
2022/02/13 06:05:23;;;;;;;10.20;2.60;;;;;;;-0.99;81.24;100909.60;108055;1278;58982;-78
2022/02/13 06:07:50;;;;;;;6.00;2.50;;;;;;;-0.97;81.24;100909.34;107887;1279;59256;-78
2022/02/13 06:10:16;;;;;;;5.00;2.10;;;;;;;-0.94;81.32;100913.85;107936;1279;60427;-78
2022/02/13 06:12:43;;;;;;;6.40;2.70;;;;;;;-0.92;81.20;100914.58;108098;1278;59238;-78
2022/02/13 06:15:11;;;;;;;6.70;2.60;;;;;;;-0.90;81.27;100919.27;108116;1279;71647;-78
2022/02/13 06:17:37;;;;;;;8.20;3.00;;;;;;;-0.87;81.22;100915.81;108173;1278;72917;-78
2022/02/13 06:20:05;;;;;;;6.60;2.10;;;;;;;-0.85;81.01;100913.08;108142;1277;59187;-79
2022/02/13 06:22:31;;;;;;;8.90;3.40;;;;;;;-0.83;80.91;100917.84;108173;1278;61984;-78
2022/02/13 06:24:58;;;;;;;8.20;3.50;;;;;;;-0.81;80.84;100924.16;108128;1277;59112;-78
2022/02/13 06:27:24;;;;;;;9.20;3.30;;;;;;;-0.80;80.66;100922.16;108140;1279;59139;-78
2022/02/13 06:29:51;;;;;;;6.30;3.30;;;;;;;-0.80;80.27;100919.08;108149;1278;59123;-78
2022/02/13 06:32:17;;;;;;;7.70;3.40;;;;;;;-0.84;80.44;100920.65;107980;1279;62305;-78
2022/02/13 06:34:44;;;;;;;4.70;2.40;;;;;;;-0.86;80.46;100920.26;107846;1279;60344;-78
2022/02/13 06:37:10;;;;;;;6.40;2.70;;;;;;;-0.87;80.77;100925.54;108174;1279;75993;-78
2022/02/13 06:39:37;;;;;;;5.90;3.40;;;;;;;-0.83;81.00;100925.33;108122;1277;59709;-79
2022/02/13 06:42:04;;;;;;;9.30;3.70;;;;;;;-0.75;81.02;100930.55;108011;1278;59524;-79
2022/02/13 06:44:30;;;;;;;8.00;3.50;;;;;;;-0.69;80.76;100934.86;107780;1277;60957;-79
2022/02/13 06:46:58;;;;;;;7.90;3.60;;;;;;;-0.65;80.67;100934.21;108074;1279;60601;-78
2022/02/13 06:49:24;;;;;;;8.30;3.90;;;;;;;-0.59;80.32;100937.70;108019;1278;59288;-79
2022/02/13 06:51:50;;;;;;;9.00;4.10;;;;;;;-0.54;80.38;100942.77;108104;1279;59006;-79
2022/02/13 06:54:17;;;;;;;9.40;3.90;;;;;;;-0.49;80.40;100938.98;108045;1279;59426;-80
2022/02/13 06:56:43;;;;;;;8.20;3.90;;;;;;;-0.42;80.34;100942.50;108068;1278;59075;-79
2022/02/13 06:59:10;;;;;;;5.30;2.90;;;;;;;-0.34;80.07;100943.91;108101;1277;59326;-79
2022/02/13 07:01:36;;;;;;;6.50;3.00;;;;;;;-0.27;79.82;100944.52;108038;1279;59183;-78
2022/02/13 07:04:03;;;;;;;8.60;3.90;;;;;;;-0.21;79.75;100942.75;108110;1278;59384;-79
2022/02/13 07:06:29;;;;;;;7.90;3.90;;;;;;;-0.17;79.49;100936.92;108057;1279;59253;-78
2022/02/13 07:08:56;;;;;;;4.10;2.70;;;;;;;-0.14;79.39;100936.18;108058;1278;59075;-79
2022/02/13 07:11:22;;;;;;;13.20;4.20;;;;;;;-0.12;79.39;100937.80;108040;1279;59319;-78
2022/02/13 07:13:49;;;;;;;8.00;4.00;;;;;;;-0.09;79.13;100936.73;108074;1277;59479;-78
2022/02/13 07:16:15;;;;;;;9.10;4.20;;;;;;;-0.05;79.17;100942.73;108019;1279;59120;-78
2022/02/13 07:18:42;;;;;;;8.10;3.90;;;;;;;-0.01;78.94;100937.61;107545;1279;59287;-78
2022/02/13 07:21:08;;;;;;;10.30;3.80;;;;;;;0.06;78.51;100939.25;107846;1279;59542;-78
2022/02/13 07:23:35;;;;;;;7.60;3.80;;;;;;;0.11;78.19;100941.34;108111;1278;59158;-78
2022/02/13 07:26:01;;;;;;;7.20;3.70;;;;;;;0.15;78.10;100941.91;107996;1279;59241;-77
2022/02/13 07:31:13;;;;;;;11.00;5.00;;;;;;;0.26;77.48;100938.08;108109;1279;73017;-80
2022/02/13 07:33:39;;;;;;;6.30;3.50;;;;;;;0.31;76.99;100932.02;108138;1277;58766;-79
2022/02/13 07:36:06;;;;;;;10.10;4.80;;;;;;;0.35;76.83;100929.67;108177;1279;59348;-79
2022/02/13 07:38:32;;;;;;;6.10;3.00;;;;;;;0.38;76.78;100930.14;108129;1279;59251;-80
2022/02/13 07:40:59;;;;;;;10.30;3.20;;;;;;;0.43;76.58;100934.92;108189;1278;59111;-79
2022/02/13 07:43:25;;;;;;;9.30;4.20;;;;;;;0.45;76.44;100938.22;108178;1278;59117;-80
2022/02/13 07:45:52;;;;;;;8.70;4.20;;;;;;;0.48;76.15;100937.13;108193;1277;61179;-79
2022/02/13 07:48:18;;;;;;;6.70;4.10;;;;;;;0.53;75.67;100938.36;108078;1279;59386;-80
2022/02/13 07:50:45;;;;;;;6.40;3.90;;;;;;;0.61;75.38;100938.00;108215;1278;59202;-79
2022/02/13 07:53:12;;;;;;;5.10;2.80;;;;;;;0.68;75.08;100939.77;107963;1279;71347;-80
2022/02/13 07:55:40;;;;;;;6.80;3.60;;;;;;;0.77;74.58;100940.06;108171;1278;71955;-79
2022/02/13 07:58:07;;;;;;;9.80;3.70;;;;;;;0.85;74.21;100935.51;108001;1279;61450;-79
2022/02/13 08:00:33;;;;;;;8.30;4.00;;;;;;;0.91;73.88;100933.86;107975;1279;60461;-79
2022/02/13 08:03:00;;;;;;;8.10;4.20;;;;;;;0.98;73.77;100929.90;108171;1278;76064;-79
2022/02/13 08:05:27;;;;;;;7.00;3.90;;;;;;;1.04;73.37;100939.95;107793;1277;71490;-79
2022/02/13 08:07:53;;;;;;;11.70;4.20;;;;;;;1.11;73.32;100938.76;108132;1277;59479;-79
2022/02/13 08:10:20;;;;;;;7.30;4.20;;;;;;;1.16;73.04;100935.90;107995;1279;61471;-79
2022/02/13 08:12:47;;;;;;;9.40;4.20;;;;;;;1.23;72.90;100936.84;108115;1278;60276;-79
2022/02/13 08:15:14;;;;;;;9.80;4.30;;;;;;;1.31;72.89;100936.97;107834;1279;74893;-79
2022/02/13 08:17:41;;;;;;;10.30;4.30;;;;;;;1.39;72.86;100941.11;108103;1278;71453;-79
2022/02/13 08:20:13;;;;;;;9.20;4.20;;;;;;;1.46;72.61;100939.90;108004;1279;73007;-79
2022/02/13 08:22:40;;;;;;;12.80;4.70;;;;;;;1.54;72.14;100936.04;108012;1279;61253;-79
2022/02/13 08:25:08;;;;;;;5.80;3.20;;;;;;;1.62;71.90;100934.91;107888;1279;60783;-79
2022/02/13 08:27:35;;;;;;;8.90;4.10;;;;;;;1.70;71.64;100933.84;108128;1279;75980;-80
2022/02/13 08:30:02;;;;;;;7.90;3.80;;;;;;;1.77;71.48;100931.23;108121;1279;71368;-80
2022/02/13 08:32:29;;;;;;;10.60;4.80;;;;;;;1.86;71.51;100924.85;108074;1278;74068;-80
2022/02/13 08:34:55;;;;;;;9.70;3.40;;;;;;;1.95;71.59;100926.78;107930;1279;60364;-80
2022/02/13 08:37:22;;;;;;;8.00;3.30;;;;;;;2.03;71.31;100926.00;108078;1279;60687;-80
2022/02/13 08:39:49;;;;;;;6.00;3.00;;;;;;;2.12;71.12;100924.88;108129;1278;59099;-79
2022/02/13 08:42:15;;;;;;;11.10;4.20;;;;;;;2.17;69.75;100925.52;107962;1279;71782;-80
2022/02/13 08:44:42;;;;;;;9.40;4.40;;;;;;;2.20;68.93;100928.60;107899;1279;59173;-80
2022/02/13 08:47:08;;;;;;;11.40;4.30;;;;;;;2.23;68.73;100932.67;108153;1278;58962;-80
2022/02/13 08:49:35;;;;;;;6.70;3.30;;;;;;;2.28;68.48;100923.66;107818;1277;59243;-79
2022/02/13 08:52:01;;;;;;;3.60;2.00;;;;;;;2.33;68.71;100918.69;108085;1279;59055;-79
2022/02/13 08:54:28;;;;;;;7.90;4.30;;;;;;;2.36;68.51;100914.44;108114;1277;59607;-80
2022/02/13 08:56:55;;;;;;;8.40;4.10;;;;;;;2.39;68.29;100912.11;108144;1278;59173;-80
2022/02/13 08:59:21;;;;;;;8.50;3.50;;;;;;;2.43;67.93;100903.98;107890;1279;61566;-80
2022/02/13 09:01:48;;;;;;;7.80;3.80;;;;;;;2.45;67.95;100899.79;108172;1277;59021;-80
2022/02/13 09:04:16;;;;;;;6.00;3.30;;;;;;;2.50;68.50;100896.81;107995;1279;75926;-80
2022/02/13 09:06:43;;;;;;;6.80;4.10;;;;;;;2.54;67.96;100894.44;108108;1278;71347;-80
2022/02/13 09:09:10;;;;;;;5.60;3.40;;;;;;;2.57;67.06;100888.95;107859;1277;321428;-80
2022/02/13 09:11:37;;;;;;;7.50;3.90;;;;;;;2.61;67.66;100883.02;108131;1278;59380;-79
2022/02/13 09:14:09;;;;;;;8.20;3.20;;;;;;;2.68;67.92;100875.34;108078;1278;59149;-79
2022/02/13 09:16:36;;;;;;;6.50;3.20;;;;;;;2.73;67.73;100871.80;107926;1280;74858;-79
2022/02/13 09:19:03;;;;;;;6.30;2.50;;;;;;;2.80;67.64;100866.73;107931;1279;71128;-79
2022/02/13 09:21:29;;;;;;;7.40;2.70;;;;;;;2.85;67.08;100857.05;108099;1279;71948;-79
2022/02/13 09:23:56;;;;;;;8.20;4.00;;;;;;;2.93;66.97;100854.92;108079;1277;59103;-79
2022/02/13 09:26:23;;;;;;;8.00;3.90;;;;;;;2.98;66.10;100855.50;107867;1281;61543;-79
2022/02/13 09:28:49;;;;;;;6.70;3.30;;;;;;;3.04;65.71;100856.47;108147;1277;59067;-79
2022/02/13 09:31:17;;;;;;;8.50;3.70;;;;;;;3.11;65.62;100855.41;108087;1279;71844;-80
2022/02/13 09:33:44;;;;;;;11.70;5.30;;;;;;;3.18;65.64;100859.38;108051;1279;71708;-79
2022/02/13 09:36:13;;;;;;;7.70;4.00;;;;;;;3.25;65.13;100858.84;108096;1279;59819;-79
2022/02/13 09:38:40;;;;;;;8.70;3.70;;;;;;;3.32;63.96;100853.20;107994;1278;60890;-80
2022/02/13 09:41:09;;;;;;;8.00;4.10;;;;;;;3.40;63.89;100851.67;107877;1281;76409;-79
2022/02/13 09:43:35;;;;;;;10.00;4.10;;;;;;;3.50;63.65;100849.12;107946;1280;72150;-80
2022/02/13 09:46:02;;;;;;;9.00;4.10;;;;;;;3.54;62.83;100842.13;108078;1277;59322;-79
2022/02/13 09:48:31;;;;;;;5.90;3.30;;;;;;;3.61;62.65;100843.45;108088;1277;59525;-80
2022/02/13 09:50:59;;;;;;;5.60;2.80;;;;;;;3.67;62.12;100834.90;107972;1278;60675;-81
2022/02/13 09:53:27;;;;;;;5.50;3.10;;;;;;;3.72;61.10;100825.84;107847;1280;76077;-81
2022/02/13 09:55:57;;;;;;;11.70;3.10;;;;;;;3.77;61.04;100822.88;108016;1279;71386;-81
2022/02/13 09:58:24;;;;;;;8.70;3.40;;;;;;;3.84;60.64;100819.03;108115;1277;74024;-82
2022/02/13 10:00:55;;;;;;;7.10;2.90;;;;;;;3.91;60.10;100820.35;108144;1277;59106;-81
2022/02/13 10:03:30;;;;;;;5.10;2.70;;;;;;;3.99;59.49;100818.64;107854;1281;61664;-79
2022/02/13 10:06:00;;;;;;;6.60;3.20;;;;;;;4.10;59.62;100820.52;108118;1278;75470;-81
2022/02/13 10:08:34;;;;;;;10.90;2.40;;;;;;;4.17;58.32;100817.84;107813;1280;70628;-80
2022/02/13 10:11:11;;;;;;;7.30;3.30;;;;;;;4.25;58.26;100821.52;108129;1277;73016;-82
2022/02/13 10:13:58;;;;;;;4.90;2.20;;;;;;;4.35;57.58;100821.05;107935;1281;59665;-81
2022/02/13 10:16:33;;;;;;;7.20;3.30;;;;;;;4.41;56.60;100821.69;107872;1281;60521;-81
2022/02/13 10:19:10;;;;;;;5.80;3.30;;;;;;;4.50;57.02;100815.33;108159;1277;75027;-81
2022/02/13 10:21:41;;;;;;;7.60;3.30;;;;;;;4.62;56.76;100818.03;108185;1277;71398;-80
2022/02/13 10:24:22;;;;;;;7.20;3.70;;;;;;;4.75;56.36;100820.75;108067;1279;73139;-80
2022/02/13 10:26:57;;;;;;;6.40;3.00;;;;;;;4.89;55.59;100817.22;107963;1277;59856;-81
2022/02/13 10:29:29;;;;;;;6.20;3.00;;;;;;;5.00;53.99;100813.48;108149;1279;60379;-81
2022/02/13 10:32:14;;;;;;;7.50;3.10;;;;;;;5.12;54.59;100807.76;107939;1279;75126;-79
2022/02/13 10:34:55;;;;;;;5.50;3.10;;;;;;;5.27;52.43;100801.05;108014;1279;71322;-80
2022/02/13 10:37:47;;;;;;;5.40;3.10;;;;;;;5.37;52.01;100789.79;107905;1280;73549;-80
2022/02/13 10:40:23;;;;;;;4.50;2.50;;;;;;;5.48;51.31;100790.20;108139;1277;59511;-80
2022/02/13 10:43:00;;;;;;;7.40;3.60;;;;;;;5.57;51.65;100780.05;107917;1279;60848;-81
2022/02/13 10:45:29;;;;;;;5.80;3.00;;;;;;;5.73;52.00;100776.14;108105;1277;76091;-81
2022/02/13 10:48:00;;;;;;;6.10;3.10;;;;;;;5.79;50.46;100779.14;108120;1277;71262;-81
2022/02/13 10:50:32;;;;;;;9.90;3.50;;;;;;;5.84;50.70;100766.44;107741;1281;72779;-80
2022/02/13 10:53:01;;;;;;;6.00;3.00;;;;;;;5.93;50.34;100767.50;107894;1281;60874;-81
2022/02/13 10:55:29;;;;;;;5.00;2.70;;;;;;;6.04;51.39;100758.70;108019;1279;61912;-81
2022/02/13 10:57:58;;;;;;;7.70;3.00;;;;;;;6.12;50.66;100758.20;108106;1277;76055;-81
2022/02/13 11:00:30;;;;;;;6.80;3.10;;;;;;;6.12;50.14;100753.79;108165;1277;71102;-79
2022/02/13 11:03:01;;;;;;;6.30;2.90;;;;;;;6.16;50.23;100752.90;107869;1278;74140;-82
2022/02/13 11:05:29;;;;;;;6.50;3.70;;;;;;;6.14;50.17;100751.17;107892;1279;59554;-81
2022/02/13 11:08:13;;;;;;;6.10;3.10;;;;;;;6.09;49.70;100751.09;107884;1277;60963;-79
2022/02/13 11:10:41;;;;;;;5.20;2.70;;;;;;;6.13;50.75;100751.27;108181;1277;76389;-79
2022/02/13 11:13:10;;;;;;;6.50;2.80;;;;;;;6.17;50.28;100750.70;107864;1279;71448;-79
2022/02/13 11:15:38;;;;;;;6.20;4.00;;;;;;;6.15;48.68;100741.38;108197;1277;73020;-79
2022/02/13 11:18:07;;;;;;;7.50;3.40;;;;;;;6.14;49.10;100738.52;107788;1279;59663;-79
2022/02/13 11:20:36;;;;;;;6.50;3.60;;;;;;;6.14;49.21;100731.99;107941;1279;61601;-78
2022/02/13 11:23:22;;;;;;;8.00;3.40;;;;;;;6.19;49.34;100739.48;107781;1277;75989;-80
2022/02/13 11:26:06;;;;;;;6.70;3.60;;;;;;;6.22;48.87;100726.85;108046;1279;71536;-80
2022/02/13 11:28:42;;;;;;;8.30;3.50;;;;;;;6.35;49.24;100717.34;108013;1277;72755;-80
2022/02/13 11:31:30;;;;;;;8.50;3.40;;;;;;;6.44;48.80;100712.65;108073;1279;59928;-80
2022/02/13 11:33:58;;;;;;;8.00;3.50;;;;;;;6.53;47.50;100717.58;108177;1277;62105;-80
2022/02/13 11:36:50;;;;;;;7.50;3.30;;;;;;;6.61;47.39;100707.72;108084;1279;75097;-80
2022/02/13 11:39:39;;;;;;;7.70;3.50;;;;;;;6.69;47.17;100704.78;107973;1279;72627;-80
2022/02/13 11:42:11;;;;;;;6.60;3.30;;;;;;;6.82;47.15;100697.38;108127;1277;72966;-80
2022/02/13 11:44:43;;;;;;;7.70;4.20;;;;;;;6.96;46.96;100686.02;107879;1279;59829;-80
2022/02/13 11:47:15;;;;;;;6.40;3.60;;;;;;;7.09;46.21;100680.46;108142;1277;61717;-81
2022/02/13 11:50:11;;;;;;;5.80;3.10;;;;;;;7.16;46.11;100680.36;108144;1277;76580;-81
2022/02/13 11:52:58;;;;;;;7.20;3.80;;;;;;;7.30;46.59;100674.88;107790;1280;72282;-80
2022/02/13 11:55:27;;;;;;;6.10;3.40;;;;;;;7.45;46.09;100681.09;107887;1279;73064;-79
2022/02/13 11:57:59;;;;;;;6.50;3.50;;;;;;;7.64;45.92;100678.11;108163;1277;59636;-80
2022/02/13 12:00:41;;;;;;;7.00;3.20;;;;;;;7.86;45.21;100668.91;107885;1277;60045;-80
2022/02/13 12:03:17;;;;;;;7.50;3.50;;;;;;;8.06;43.63;100672.05;108174;1277;75981;-80
2022/02/13 12:05:51;;;;;;;5.00;2.90;;;;;;;8.25;43.69;100662.04;107926;1279;71773;-80
2022/02/13 12:08:22;;;;;;;6.10;3.30;;;;;;;8.46;42.82;100660.73;108189;1277;73171;-80
2022/02/13 12:10:49;;;;;;;5.80;3.40;;;;;;;8.65;42.02;100649.73;107865;1277;61092;-80
2022/02/13 12:13:17;;;;;;;5.80;3.10;;;;;;;8.91;41.76;100650.48;108173;1277;59568;-80
2022/02/13 12:15:55;;;;;;;4.40;3.10;;;;;;;9.14;41.28;100647.59;108203;1277;76508;-80
2022/02/13 12:18:22;;;;;;;6.30;3.70;;;;;;;9.35;40.26;100650.78;107953;1280;71452;-80
2022/02/13 12:20:59;;;;;;;6.30;3.00;;;;;;;9.54;39.81;100642.77;108162;1275;73026;-80
2022/02/13 12:23:26;;;;;;;7.20;3.40;;;;;;;9.79;39.43;100642.27;108190;1277;60726;-80
2022/02/13 12:25:55;;;;;;;7.30;3.10;;;;;;;10.03;38.75;100628.78;108143;1277;61660;-81
2022/02/13 12:28:28;;;;;;;6.10;3.40;;;;;;;10.30;38.10;100621.48;108191;1277;75789;-81
2022/02/13 12:30:56;;;;;;;5.70;3.40;;;;;;;10.48;37.39;100617.65;107905;1281;70336;-80
2022/02/13 12:33:26;;;;;;;4.80;3.10;;;;;;;10.59;37.38;100618.66;108225;1277;73105;-80
2022/02/13 12:35:56;;;;;;;5.30;2.80;;;;;;;10.74;37.43;100614.55;108252;1277;59265;-81
2022/02/13 12:38:24;;;;;;;4.80;3.00;;;;;;;10.78;36.65;100606.63;108195;1277;61274;-80
2022/02/13 12:40:54;;;;;;;4.80;2.90;;;;;;;10.90;36.24;100601.99;107803;1279;75165;-81
2022/02/13 12:43:22;;;;;;;5.50;2.70;;;;;;;11.10;36.05;100598.54;108048;1279;72687;-80